sensor_id;sensor_type;location;lat;lon;timestamp;temperature;humidity
37274;DHT22;23161;51.250;5.554;2024-01-07T00:01:10;1.70;99.90
37274;DHT22;23161;51.250;5.554;2024-01-07T00:03:36;1.80;99.90
37274;DHT22;23161;51.250;5.554;2024-01-07T00:06:02;1.80;99.90
37274;DHT22;23161;51.250;5.554;2024-01-07T00:08:28;1.70;99.90
37274;DHT22;23161;51.250;5.554;2024-01-07T00:10:53;1.80;99.90
37274;DHT22;23161;51.250;5.554;2024-01-07T00:13:19;1.80;99.90
37274;DHT22;23161;51.250;5.554;2024-01-07T00:15:45;1.70;99.90
37274;DHT22;23161;51.250;5.554;2024-01-07T00:18:11;1.70;99.90
37274;DHT22;23161;51.250;5.554;2024-01-07T00:20:37;1.80;99.90
37274;DHT22;23161;51.250;5.554;2024-01-07T00:23:02;1.80;99.90
37274;DHT22;23161;51.250;5.554;2024-01-07T00:25:28;1.80;99.90
37274;DHT22;23161;51.250;5.554;2024-01-07T00:27:54;1.80;99.90
37274;DHT22;23161;51.250;5.554;2024-01-07T00:30:21;1.80;99.90
37274;DHT22;23161;51.250;5.554;2024-01-07T00:32:47;1.80;99.90
37274;DHT22;23161;51.250;5.554;2024-01-07T00:35:13;1.80;99.90
37274;DHT22;23161;51.250;5.554;2024-01-07T00:37:39;2.20;99.90
37274;DHT22;23161;51.250;5.554;2024-01-07T00:40:06;1.80;99.90
37274;DHT22;23161;51.250;5.554;2024-01-07T00:42:32;1.80;99.90
37274;DHT22;23161;51.250;5.554;2024-01-07T00:44:57;1.80;99.90
37274;DHT22;23161;51.250;5.554;2024-01-07T00:47:23;1.80;99.90
37274;DHT22;23161;51.250;5.554;2024-01-07T00:49:49;1.80;99.90
37274;DHT22;23161;51.250;5.554;2024-01-07T00:52:15;1.80;99.90
37274;DHT22;23161;51.250;5.554;2024-01-07T00:54:42;1.80;99.90
37274;DHT22;23161;51.250;5.554;2024-01-07T00:57:10;1.80;99.90
37274;DHT22;23161;51.250;5.554;2024-01-07T00:59:37;1.80;99.90
37274;DHT22;23161;51.250;5.554;2024-01-07T01:02:03;1.80;99.90
37274;DHT22;23161;51.250;5.554;2024-01-07T01:04:30;1.90;99.90
37274;DHT22;23161;51.250;5.554;2024-01-07T01:06:55;1.90;99.90
37274;DHT22;23161;51.250;5.554;2024-01-07T01:09:21;1.90;99.90
37274;DHT22;23161;51.250;5.554;2024-01-07T01:11:47;1.90;99.90
37274;DHT22;23161;51.250;5.554;2024-01-07T01:14:15;1.90;99.90
37274;DHT22;23161;51.250;5.554;2024-01-07T01:16:41;1.90;99.90
37274;DHT22;23161;51.250;5.554;2024-01-07T01:19:07;2.20;99.90
37274;DHT22;23161;51.250;5.554;2024-01-07T01:21:35;2.10;99.90
37274;DHT22;23161;51.250;5.554;2024-01-07T01:24:00;1.80;99.90
37274;DHT22;23161;51.250;5.554;2024-01-07T01:26:26;1.90;99.90
37274;DHT22;23161;51.250;5.554;2024-01-07T01:28:52;1.90;99.90
37274;DHT22;23161;51.250;5.554;2024-01-07T01:31:18;1.80;99.90
37274;DHT22;23161;51.250;5.554;2024-01-07T01:33:45;1.80;99.90
37274;DHT22;23161;51.250;5.554;2024-01-07T01:36:11;1.80;99.90
37274;DHT22;23161;51.250;5.554;2024-01-07T01:38:37;1.80;99.90
37274;DHT22;23161;51.250;5.554;2024-01-07T01:41:03;1.80;99.90
37274;DHT22;23161;51.250;5.554;2024-01-07T01:43:29;1.80;99.90
37274;DHT22;23161;51.250;5.554;2024-01-07T01:45:56;1.80;99.90
37274;DHT22;23161;51.250;5.554;2024-01-07T01:48:26;1.80;99.90
37274;DHT22;23161;51.250;5.554;2024-01-07T01:50:54;1.90;99.90
37274;DHT22;23161;51.250;5.554;2024-01-07T01:53:24;1.80;99.90
37274;DHT22;23161;51.250;5.554;2024-01-07T01:55:52;1.90;99.90
37274;DHT22;23161;51.250;5.554;2024-01-07T01:58:19;1.90;99.90
37274;DHT22;23161;51.250;5.554;2024-01-07T02:00:46;1.90;99.90
37274;DHT22;23161;51.250;5.554;2024-01-07T02:03:12;1.90;99.90
37274;DHT22;23161;51.250;5.554;2024-01-07T02:05:37;1.90;99.90
37274;DHT22;23161;51.250;5.554;2024-01-07T02:08:04;1.90;99.90
37274;DHT22;23161;51.250;5.554;2024-01-07T02:10:30;1.90;99.90
37274;DHT22;23161;51.250;5.554;2024-01-07T02:13:00;1.90;99.90
37274;DHT22;23161;51.250;5.554;2024-01-07T02:15:26;1.90;99.90
37274;DHT22;23161;51.250;5.554;2024-01-07T02:17:52;1.90;99.90
37274;DHT22;23161;51.250;5.554;2024-01-07T02:20:18;1.90;99.90
37274;DHT22;23161;51.250;5.554;2024-01-07T02:22:43;1.90;99.90
37274;DHT22;23161;51.250;5.554;2024-01-07T02:25:09;1.90;99.90
37274;DHT22;23161;51.250;5.554;2024-01-07T02:27:35;1.80;99.90
37274;DHT22;23161;51.250;5.554;2024-01-07T02:30:01;1.80;99.90
37274;DHT22;23161;51.250;5.554;2024-01-07T02:32:27;1.80;99.90
37274;DHT22;23161;51.250;5.554;2024-01-07T02:34:53;1.80;99.90
37274;DHT22;23161;51.250;5.554;2024-01-07T02:37:20;1.80;99.90
37274;DHT22;23161;51.250;5.554;2024-01-07T02:39:45;2.10;99.90
37274;DHT22;23161;51.250;5.554;2024-01-07T02:42:11;2.40;99.90
37274;DHT22;23161;51.250;5.554;2024-01-07T02:44:37;1.80;99.90
37274;DHT22;23161;51.250;5.554;2024-01-07T02:47:03;1.80;99.90
37274;DHT22;23161;51.250;5.554;2024-01-07T02:49:29;1.80;99.90
37274;DHT22;23161;51.250;5.554;2024-01-07T02:51:55;1.80;99.90
37274;DHT22;23161;51.250;5.554;2024-01-07T02:54:21;1.80;99.90
37274;DHT22;23161;51.250;5.554;2024-01-07T02:56:46;1.80;99.90
37274;DHT22;23161;51.250;5.554;2024-01-07T02:59:12;1.80;99.90
37274;DHT22;23161;51.250;5.554;2024-01-07T03:01:38;1.70;99.90
37274;DHT22;23161;51.250;5.554;2024-01-07T03:04:07;1.80;99.90
37274;DHT22;23161;51.250;5.554;2024-01-07T03:06:34;1.80;99.90
37274;DHT22;23161;51.250;5.554;2024-01-07T03:09:00;1.80;99.90
37274;DHT22;23161;51.250;5.554;2024-01-07T03:11:26;1.80;99.90
37274;DHT22;23161;51.250;5.554;2024-01-07T03:13:51;1.70;99.90
37274;DHT22;23161;51.250;5.554;2024-01-07T03:16:25;1.70;99.90
37274;DHT22;23161;51.250;5.554;2024-01-07T03:18:51;1.80;99.90
37274;DHT22;23161;51.250;5.554;2024-01-07T03:21:22;1.80;99.90
37274;DHT22;23161;51.250;5.554;2024-01-07T03:23:49;1.80;99.90
37274;DHT22;23161;51.250;5.554;2024-01-07T03:26:16;1.70;99.90
37274;DHT22;23161;51.250;5.554;2024-01-07T03:28:42;1.80;99.90
37274;DHT22;23161;51.250;5.554;2024-01-07T03:31:10;1.70;99.90
37274;DHT22;23161;51.250;5.554;2024-01-07T03:33:40;2.50;99.90
37274;DHT22;23161;51.250;5.554;2024-01-07T03:36:13;1.70;99.90
37274;DHT22;23161;51.250;5.554;2024-01-07T03:38:40;1.70;99.90
37274;DHT22;23161;51.250;5.554;2024-01-07T03:41:06;1.70;99.90
37274;DHT22;23161;51.250;5.554;2024-01-07T03:43:32;1.70;99.90
37274;DHT22;23161;51.250;5.554;2024-01-07T03:45:58;1.70;99.90
37274;DHT22;23161;51.250;5.554;2024-01-07T03:48:25;1.70;99.90
37274;DHT22;23161;51.250;5.554;2024-01-07T03:50:51;2.30;99.90
37274;DHT22;23161;51.250;5.554;2024-01-07T03:53:17;1.70;99.90
37274;DHT22;23161;51.250;5.554;2024-01-07T03:55:43;1.60;99.90
37274;DHT22;23161;51.250;5.554;2024-01-07T03:58:09;1.60;99.90
37274;DHT22;23161;51.250;5.554;2024-01-07T04:00:36;1.60;99.90
37274;DHT22;23161;51.250;5.554;2024-01-07T04:03:02;1.60;99.90
37274;DHT22;23161;51.250;5.554;2024-01-07T04:05:28;1.60;99.90
37274;DHT22;23161;51.250;5.554;2024-01-07T04:07:55;1.60;99.90
37274;DHT22;23161;51.250;5.554;2024-01-07T04:10:20;1.60;99.90
37274;DHT22;23161;51.250;5.554;2024-01-07T04:12:46;1.60;99.90
37274;DHT22;23161;51.250;5.554;2024-01-07T04:15:12;1.60;99.90
37274;DHT22;23161;51.250;5.554;2024-01-07T04:17:38;1.60;99.90
37274;DHT22;23161;51.250;5.554;2024-01-07T04:20:05;1.60;99.90
37274;DHT22;23161;51.250;5.554;2024-01-07T04:22:31;1.60;99.90
37274;DHT22;23161;51.250;5.554;2024-01-07T04:24:57;1.60;99.90
37274;DHT22;23161;51.250;5.554;2024-01-07T04:27:23;1.90;99.90
37274;DHT22;23161;51.250;5.554;2024-01-07T04:29:50;1.60;99.90
37274;DHT22;23161;51.250;5.554;2024-01-07T04:32:16;1.60;99.90
37274;DHT22;23161;51.250;5.554;2024-01-07T04:34:42;1.60;99.90
37274;DHT22;23161;51.250;5.554;2024-01-07T04:37:09;2.70;99.90
37274;DHT22;23161;51.250;5.554;2024-01-07T04:39:35;1.60;99.90
37274;DHT22;23161;51.250;5.554;2024-01-07T04:42:00;1.60;99.90
37274;DHT22;23161;51.250;5.554;2024-01-07T04:44:26;1.70;99.90
37274;DHT22;23161;51.250;5.554;2024-01-07T04:46:52;1.60;99.90
37274;DHT22;23161;51.250;5.554;2024-01-07T04:51:44;1.60;99.90
37274;DHT22;23161;51.250;5.554;2024-01-07T04:54:09;1.60;99.90
37274;DHT22;23161;51.250;5.554;2024-01-07T04:56:35;1.60;99.90
37274;DHT22;23161;51.250;5.554;2024-01-07T04:59:01;1.60;99.90
37274;DHT22;23161;51.250;5.554;2024-01-07T05:01:27;1.50;99.90
37274;DHT22;23161;51.250;5.554;2024-01-07T05:03:53;1.50;99.90
37274;DHT22;23161;51.250;5.554;2024-01-07T05:06:19;1.50;99.90
37274;DHT22;23161;51.250;5.554;2024-01-07T05:08:44;1.50;99.90
37274;DHT22;23161;51.250;5.554;2024-01-07T05:11:10;1.50;99.90
37274;DHT22;23161;51.250;5.554;2024-01-07T05:13:36;1.50;99.90
37274;DHT22;23161;51.250;5.554;2024-01-07T05:16:03;2.20;99.90
37274;DHT22;23161;51.250;5.554;2024-01-07T05:18:29;1.50;99.90
37274;DHT22;23161;51.250;5.554;2024-01-07T05:20:55;1.40;99.90
37274;DHT22;23161;51.250;5.554;2024-01-07T05:23:21;1.40;99.90
37274;DHT22;23161;51.250;5.554;2024-01-07T05:25:46;1.50;99.90
37274;DHT22;23161;51.250;5.554;2024-01-07T05:28:13;1.40;99.90
37274;DHT22;23161;51.250;5.554;2024-01-07T05:30:39;1.40;99.90
37274;DHT22;23161;51.250;5.554;2024-01-07T05:33:05;1.40;99.90
37274;DHT22;23161;51.250;5.554;2024-01-07T05:35:31;1.40;99.90
37274;DHT22;23161;51.250;5.554;2024-01-07T05:37:57;1.40;99.90
37274;DHT22;23161;51.250;5.554;2024-01-07T05:40:24;1.40;99.90
37274;DHT22;23161;51.250;5.554;2024-01-07T05:42:49;1.40;99.90
37274;DHT22;23161;51.250;5.554;2024-01-07T05:45:16;1.60;99.90
37274;DHT22;23161;51.250;5.554;2024-01-07T05:47:41;1.40;99.90
37274;DHT22;23161;51.250;5.554;2024-01-07T05:50:08;1.40;99.90
37274;DHT22;23161;51.250;5.554;2024-01-07T05:52:34;1.40;99.90
37274;DHT22;23161;51.250;5.554;2024-01-07T05:54:59;1.40;99.90
37274;DHT22;23161;51.250;5.554;2024-01-07T05:57:26;1.40;99.90
37274;DHT22;23161;51.250;5.554;2024-01-07T05:59:52;1.60;99.90
37274;DHT22;23161;51.250;5.554;2024-01-07T06:02:18;1.40;99.90
37274;DHT22;23161;51.250;5.554;2024-01-07T06:04:44;1.30;99.90
37274;DHT22;23161;51.250;5.554;2024-01-07T06:07:10;1.70;99.90
37274;DHT22;23161;51.250;5.554;2024-01-07T06:09:35;1.30;99.90
37274;DHT22;23161;51.250;5.554;2024-01-07T06:12:01;1.90;99.90
37274;DHT22;23161;51.250;5.554;2024-01-07T06:14:27;2.00;99.90
37274;DHT22;23161;51.250;5.554;2024-01-07T06:16:53;1.30;99.90
37274;DHT22;23161;51.250;5.554;2024-01-07T06:19:20;1.30;99.90
37274;DHT22;23161;51.250;5.554;2024-01-07T06:21:45;1.30;99.90
37274;DHT22;23161;51.250;5.554;2024-01-07T06:24:11;1.30;99.90
37274;DHT22;23161;51.250;5.554;2024-01-07T06:26:37;1.30;99.90
37274;DHT22;23161;51.250;5.554;2024-01-07T06:29:03;1.70;99.90
37274;DHT22;23161;51.250;5.554;2024-01-07T06:31:29;1.30;99.90
37274;DHT22;23161;51.250;5.554;2024-01-07T06:33:55;1.20;99.90
37274;DHT22;23161;51.250;5.554;2024-01-07T06:36:26;1.20;99.90
37274;DHT22;23161;51.250;5.554;2024-01-07T06:38:53;1.30;99.90
37274;DHT22;23161;51.250;5.554;2024-01-07T06:41:19;1.20;99.90
37274;DHT22;23161;51.250;5.554;2024-01-07T06:43:44;2.00;99.90
37274;DHT22;23161;51.250;5.554;2024-01-07T06:46:10;1.10;99.90
37274;DHT22;23161;51.250;5.554;2024-01-07T06:48:36;1.20;99.90
37274;DHT22;23161;51.250;5.554;2024-01-07T06:51:02;1.20;99.90
37274;DHT22;23161;51.250;5.554;2024-01-07T06:53:28;1.20;99.90
37274;DHT22;23161;51.250;5.554;2024-01-07T06:55:54;1.20;99.90
37274;DHT22;23161;51.250;5.554;2024-01-07T06:58:20;1.20;99.90
37274;DHT22;23161;51.250;5.554;2024-01-07T07:00:45;1.20;99.90
37274;DHT22;23161;51.250;5.554;2024-01-07T07:03:11;1.60;99.90
37274;DHT22;23161;51.250;5.554;2024-01-07T07:05:38;1.10;99.90
37274;DHT22;23161;51.250;5.554;2024-01-07T07:08:04;1.10;99.90
37274;DHT22;23161;51.250;5.554;2024-01-07T07:10:30;1.10;99.90
37274;DHT22;23161;51.250;5.554;2024-01-07T07:12:57;1.10;99.90
37274;DHT22;23161;51.250;5.554;2024-01-07T07:15:23;1.10;99.90
37274;DHT22;23161;51.250;5.554;2024-01-07T07:17:52;1.30;99.90
37274;DHT22;23161;51.250;5.554;2024-01-07T07:20:18;1.10;99.90
37274;DHT22;23161;51.250;5.554;2024-01-07T07:22:44;1.10;99.90
37274;DHT22;23161;51.250;5.554;2024-01-07T07:25:09;1.10;99.90
37274;DHT22;23161;51.250;5.554;2024-01-07T07:27:35;1.10;99.90
37274;DHT22;23161;51.250;5.554;2024-01-07T07:30:01;1.20;99.90
37274;DHT22;23161;51.250;5.554;2024-01-07T07:32:27;1.10;99.90
37274;DHT22;23161;51.250;5.554;2024-01-07T07:34:52;1.10;99.90
37274;DHT22;23161;51.250;5.554;2024-01-07T07:37:18;1.10;99.90
37274;DHT22;23161;51.250;5.554;2024-01-07T07:39:44;1.10;99.90
37274;DHT22;23161;51.250;5.554;2024-01-07T07:42:10;1.10;99.90
37274;DHT22;23161;51.250;5.554;2024-01-07T07:44:37;1.10;99.90
37274;DHT22;23161;51.250;5.554;2024-01-07T07:47:04;1.10;99.90
37274;DHT22;23161;51.250;5.554;2024-01-07T07:51:57;1.00;99.90
37274;DHT22;23161;51.250;5.554;2024-01-07T07:54:23;1.00;99.90
37274;DHT22;23161;51.250;5.554;2024-01-07T07:56:48;1.00;99.90
37274;DHT22;23161;51.250;5.554;2024-01-07T07:59:14;1.00;99.90
37274;DHT22;23161;51.250;5.554;2024-01-07T08:01:40;1.20;99.90
37274;DHT22;23161;51.250;5.554;2024-01-07T08:04:06;1.00;99.90
37274;DHT22;23161;51.250;5.554;2024-01-07T08:06:33;1.00;99.90
37274;DHT22;23161;51.250;5.554;2024-01-07T08:08:59;1.00;99.90
37274;DHT22;23161;51.250;5.554;2024-01-07T08:11:25;1.00;99.90
37274;DHT22;23161;51.250;5.554;2024-01-07T08:13:50;1.00;99.90
37274;DHT22;23161;51.250;5.554;2024-01-07T08:16:16;0.90;99.90
37274;DHT22;23161;51.250;5.554;2024-01-07T08:18:42;1.00;99.90
37274;DHT22;23161;51.250;5.554;2024-01-07T08:21:08;1.00;99.90
37274;DHT22;23161;51.250;5.554;2024-01-07T08:23:35;0.90;99.90
37274;DHT22;23161;51.250;5.554;2024-01-07T08:26:01;1.00;99.90
37274;DHT22;23161;51.250;5.554;2024-01-07T08:28:27;1.00;99.90
37274;DHT22;23161;51.250;5.554;2024-01-07T08:30:53;1.00;99.90
37274;DHT22;23161;51.250;5.554;2024-01-07T08:33:19;1.10;99.90
37274;DHT22;23161;51.250;5.554;2024-01-07T08:35:45;0.90;99.90
37274;DHT22;23161;51.250;5.554;2024-01-07T08:38:11;1.00;99.90
37274;DHT22;23161;51.250;5.554;2024-01-07T08:40:39;0.90;99.90
37274;DHT22;23161;51.250;5.554;2024-01-07T08:43:04;0.90;99.90
37274;DHT22;23161;51.250;5.554;2024-01-07T08:45:30;0.90;99.90
37274;DHT22;23161;51.250;5.554;2024-01-07T08:47:56;0.90;99.90
37274;DHT22;23161;51.250;5.554;2024-01-07T08:50:22;0.90;99.90
37274;DHT22;23161;51.250;5.554;2024-01-07T08:52:48;0.90;99.90
37274;DHT22;23161;51.250;5.554;2024-01-07T08:55:13;0.90;99.90
37274;DHT22;23161;51.250;5.554;2024-01-07T08:57:39;2.40;99.90
37274;DHT22;23161;51.250;5.554;2024-01-07T09:00:06;0.80;99.90
37274;DHT22;23161;51.250;5.554;2024-01-07T09:02:33;0.90;99.90
37274;DHT22;23161;51.250;5.554;2024-01-07T09:04:59;0.90;99.90
37274;DHT22;23161;51.250;5.554;2024-01-07T09:07:25;0.90;99.90
37274;DHT22;23161;51.250;5.554;2024-01-07T09:09:51;1.60;99.90
37274;DHT22;23161;51.250;5.554;2024-01-07T09:12:17;0.90;99.90
37274;DHT22;23161;51.250;5.554;2024-01-07T09:14:42;0.90;99.90
37274;DHT22;23161;51.250;5.554;2024-01-07T09:17:08;0.90;99.90
37274;DHT22;23161;51.250;5.554;2024-01-07T09:19:34;1.50;99.90
37274;DHT22;23161;51.250;5.554;2024-01-07T09:22:00;0.90;99.90
37274;DHT22;23161;51.250;5.554;2024-01-07T09:24:26;1.00;99.90
37274;DHT22;23161;51.250;5.554;2024-01-07T09:26:52;1.00;99.90
37274;DHT22;23161;51.250;5.554;2024-01-07T09:29:18;1.00;99.90
37274;DHT22;23161;51.250;5.554;2024-01-07T09:31:43;1.00;99.90
37274;DHT22;23161;51.250;5.554;2024-01-07T09:34:09;1.00;99.90
37274;DHT22;23161;51.250;5.554;2024-01-07T09:36:35;1.00;99.90
37274;DHT22;23161;51.250;5.554;2024-01-07T09:39:02;1.00;99.90
37274;DHT22;23161;51.250;5.554;2024-01-07T09:41:30;1.00;99.90
37274;DHT22;23161;51.250;5.554;2024-01-07T09:43:57;1.00;99.90
37274;DHT22;23161;51.250;5.554;2024-01-07T09:46:26;1.60;99.90
37274;DHT22;23161;51.250;5.554;2024-01-07T09:48:54;1.00;99.90
37274;DHT22;23161;51.250;5.554;2024-01-07T09:51:22;1.00;99.90
37274;DHT22;23161;51.250;5.554;2024-01-07T09:53:54;1.00;99.90
37274;DHT22;23161;51.250;5.554;2024-01-07T09:56:26;1.00;99.90
37274;DHT22;23161;51.250;5.554;2024-01-07T09:58:55;1.00;99.90
37274;DHT22;23161;51.250;5.554;2024-01-07T10:01:21;1.00;99.90
37274;DHT22;23161;51.250;5.554;2024-01-07T10:03:46;2.00;99.90
37274;DHT22;23161;51.250;5.554;2024-01-07T10:06:12;0.90;99.90
37274;DHT22;23161;51.250;5.554;2024-01-07T10:08:39;1.20;99.90
37274;DHT22;23161;51.250;5.554;2024-01-07T10:11:05;0.90;99.90
37274;DHT22;23161;51.250;5.554;2024-01-07T10:13:31;0.90;99.90
37274;DHT22;23161;51.250;5.554;2024-01-07T10:15:58;1.40;99.90
37274;DHT22;23161;51.250;5.554;2024-01-07T10:18:25;0.90;99.90
37274;DHT22;23161;51.250;5.554;2024-01-07T10:20:51;0.90;99.90
37274;DHT22;23161;51.250;5.554;2024-01-07T10:23:20;1.20;99.90
37274;DHT22;23161;51.250;5.554;2024-01-07T10:25:47;1.80;99.90
37274;DHT22;23161;51.250;5.554;2024-01-07T10:28:16;0.90;99.90
37274;DHT22;23161;51.250;5.554;2024-01-07T10:30:49;0.90;99.90
37274;DHT22;23161;51.250;5.554;2024-01-07T10:33:17;1.10;99.90
37274;DHT22;23161;51.250;5.554;2024-01-07T10:35:51;0.90;99.90
37274;DHT22;23161;51.250;5.554;2024-01-07T10:38:19;1.00;99.90
37274;DHT22;23161;51.250;5.554;2024-01-07T10:40:46;0.90;99.90
37274;DHT22;23161;51.250;5.554;2024-01-07T10:43:15;1.10;99.90
37274;DHT22;23161;51.250;5.554;2024-01-07T10:45:45;0.90;99.90
37274;DHT22;23161;51.250;5.554;2024-01-07T10:48:17;0.90;99.90
37274;DHT22;23161;51.250;5.554;2024-01-07T10:50:45;0.90;99.90
37274;DHT22;23161;51.250;5.554;2024-01-07T10:53:20;0.80;99.90
37274;DHT22;23161;51.250;5.554;2024-01-07T10:56:00;0.90;99.90
37274;DHT22;23161;51.250;5.554;2024-01-07T10:58:32;0.90;99.90
37274;DHT22;23161;51.250;5.554;2024-01-07T11:00:58;1.00;99.90
37274;DHT22;23161;51.250;5.554;2024-01-07T11:05:58;1.00;99.90
37274;DHT22;23161;51.250;5.554;2024-01-07T11:10:59;1.00;99.90
37274;DHT22;23161;51.250;5.554;2024-01-07T11:13:36;1.00;99.90
37274;DHT22;23161;51.250;5.554;2024-01-07T11:16:05;0.90;99.90
37274;DHT22;23161;51.250;5.554;2024-01-07T11:18:31;0.90;99.90
37274;DHT22;23161;51.250;5.554;2024-01-07T11:21:00;1.00;99.90
37274;DHT22;23161;51.250;5.554;2024-01-07T11:23:34;1.00;99.90
37274;DHT22;23161;51.250;5.554;2024-01-07T11:26:03;1.20;99.90
37274;DHT22;23161;51.250;5.554;2024-01-07T11:31:19;0.90;99.90
37274;DHT22;23161;51.250;5.554;2024-01-07T11:33:47;1.10;99.90
37274;DHT22;23161;51.250;5.554;2024-01-07T11:36:16;1.00;99.90
37274;DHT22;23161;51.250;5.554;2024-01-07T11:38:53;1.00;99.90
37274;DHT22;23161;51.250;5.554;2024-01-07T11:41:20;1.30;99.90
37274;DHT22;23161;51.250;5.554;2024-01-07T11:43:59;1.50;99.90
37274;DHT22;23161;51.250;5.554;2024-01-07T11:46:29;1.00;99.90
37274;DHT22;23161;51.250;5.554;2024-01-07T11:48:59;1.10;99.90
37274;DHT22;23161;51.250;5.554;2024-01-07T11:51:26;1.10;99.90
37274;DHT22;23161;51.250;5.554;2024-01-07T11:53:52;1.20;99.90
37274;DHT22;23161;51.250;5.554;2024-01-07T11:56:18;1.00;99.90
37274;DHT22;23161;51.250;5.554;2024-01-07T11:58:44;1.30;99.90
37274;DHT22;23161;51.250;5.554;2024-01-07T12:01:10;1.40;99.90
37274;DHT22;23161;51.250;5.554;2024-01-07T12:03:36;1.60;99.90
37274;DHT22;23161;51.250;5.554;2024-01-07T12:06:03;1.40;99.90
37274;DHT22;23161;51.250;5.554;2024-01-07T12:08:30;1.40;99.90
37274;DHT22;23161;51.250;5.554;2024-01-07T12:10:56;1.30;99.90
37274;DHT22;23161;51.250;5.554;2024-01-07T12:13:22;1.20;99.90
37274;DHT22;23161;51.250;5.554;2024-01-07T12:15:48;1.30;99.90
37274;DHT22;23161;51.250;5.554;2024-01-07T12:18:14;1.10;99.90
37274;DHT22;23161;51.250;5.554;2024-01-07T12:20:40;1.10;99.90
37274;DHT22;23161;51.250;5.554;2024-01-07T12:23:09;1.00;99.90
37274;DHT22;23161;51.250;5.554;2024-01-07T12:25:36;1.00;99.90
37274;DHT22;23161;51.250;5.554;2024-01-07T12:28:06;1.00;99.90
37274;DHT22;23161;51.250;5.554;2024-01-07T12:30:32;1.00;99.90
37274;DHT22;23161;51.250;5.554;2024-01-07T12:32:58;0.90;99.90
37274;DHT22;23161;51.250;5.554;2024-01-07T12:35:28;0.90;99.90
37274;DHT22;23161;51.250;5.554;2024-01-07T12:37:54;1.20;99.90
37274;DHT22;23161;51.250;5.554;2024-01-07T12:40:22;0.90;99.90
37274;DHT22;23161;51.250;5.554;2024-01-07T12:42:49;0.90;99.90
37274;DHT22;23161;51.250;5.554;2024-01-07T12:45:15;0.90;99.90
37274;DHT22;23161;51.250;5.554;2024-01-07T12:47:42;1.30;99.90
37274;DHT22;23161;51.250;5.554;2024-01-07T12:50:09;1.00;99.90
37274;DHT22;23161;51.250;5.554;2024-01-07T12:52:39;1.00;99.90
37274;DHT22;23161;51.250;5.554;2024-01-07T12:55:05;1.00;99.90
37274;DHT22;23161;51.250;5.554;2024-01-07T12:57:32;1.00;99.90
37274;DHT22;23161;51.250;5.554;2024-01-07T12:59:58;1.00;99.90
37274;DHT22;23161;51.250;5.554;2024-01-07T13:02:24;1.00;99.90
37274;DHT22;23161;51.250;5.554;2024-01-07T13:04:51;1.00;99.90
37274;DHT22;23161;51.250;5.554;2024-01-07T13:07:16;1.00;99.90
37274;DHT22;23161;51.250;5.554;2024-01-07T13:09:42;1.00;99.90
37274;DHT22;23161;51.250;5.554;2024-01-07T13:12:10;1.00;99.90
37274;DHT22;23161;51.250;5.554;2024-01-07T13:14:36;1.00;99.90
37274;DHT22;23161;51.250;5.554;2024-01-07T13:17:02;0.90;99.90
37274;DHT22;23161;51.250;5.554;2024-01-07T13:19:28;0.90;99.90
37274;DHT22;23161;51.250;5.554;2024-01-07T13:21:55;1.90;99.90
37274;DHT22;23161;51.250;5.554;2024-01-07T13:24:24;0.80;99.90
37274;DHT22;23161;51.250;5.554;2024-01-07T13:26:49;0.80;99.90
37274;DHT22;23161;51.250;5.554;2024-01-07T13:29:15;0.80;99.90
37274;DHT22;23161;51.250;5.554;2024-01-07T13:31:41;0.80;99.90
37274;DHT22;23161;51.250;5.554;2024-01-07T13:34:07;0.80;99.90
37274;DHT22;23161;51.250;5.554;2024-01-07T13:36:34;0.80;99.90
37274;DHT22;23161;51.250;5.554;2024-01-07T13:38:59;0.80;99.90
37274;DHT22;23161;51.250;5.554;2024-01-07T13:41:26;0.80;99.90
37274;DHT22;23161;51.250;5.554;2024-01-07T13:43:54;0.80;99.90
37274;DHT22;23161;51.250;5.554;2024-01-07T13:46:22;0.70;99.90
37274;DHT22;23161;51.250;5.554;2024-01-07T13:48:50;0.70;99.90
37274;DHT22;23161;51.250;5.554;2024-01-07T13:51:17;0.60;99.90
37274;DHT22;23161;51.250;5.554;2024-01-07T13:53:43;0.50;99.90
37274;DHT22;23161;51.250;5.554;2024-01-07T13:56:11;0.60;99.90
37274;DHT22;23161;51.250;5.554;2024-01-07T13:58:38;0.60;99.90
37274;DHT22;23161;51.250;5.554;2024-01-07T14:01:04;0.60;99.90
37274;DHT22;23161;51.250;5.554;2024-01-07T14:03:33;0.50;99.90
37274;DHT22;23161;51.250;5.554;2024-01-07T14:05:59;0.60;99.90
37274;DHT22;23161;51.250;5.554;2024-01-07T14:08:26;0.60;99.90
37274;DHT22;23161;51.250;5.554;2024-01-07T14:10:52;0.60;99.90
37274;DHT22;23161;51.250;5.554;2024-01-07T14:13:18;0.60;99.90
37274;DHT22;23161;51.250;5.554;2024-01-07T14:15:44;0.60;99.90
37274;DHT22;23161;51.250;5.554;2024-01-07T14:18:10;0.50;99.90
37274;DHT22;23161;51.250;5.554;2024-01-07T14:20:40;0.40;99.90
37274;DHT22;23161;51.250;5.554;2024-01-07T14:23:06;0.30;99.90
37274;DHT22;23161;51.250;5.554;2024-01-07T14:25:32;0.30;99.90
37274;DHT22;23161;51.250;5.554;2024-01-07T14:27:58;0.30;99.90
37274;DHT22;23161;51.250;5.554;2024-01-07T14:30:24;0.30;99.90
37274;DHT22;23161;51.250;5.554;2024-01-07T14:32:50;0.30;99.90
37274;DHT22;23161;51.250;5.554;2024-01-07T14:35:16;0.30;99.90
37274;DHT22;23161;51.250;5.554;2024-01-07T14:37:43;0.30;99.90
37274;DHT22;23161;51.250;5.554;2024-01-07T14:40:11;0.30;99.90
37274;DHT22;23161;51.250;5.554;2024-01-07T14:42:36;0.20;99.90
37274;DHT22;23161;51.250;5.554;2024-01-07T14:45:02;0.30;99.90
37274;DHT22;23161;51.250;5.554;2024-01-07T14:47:30;0.30;99.90
37274;DHT22;23161;51.250;5.554;2024-01-07T14:49:56;1.00;99.90
37274;DHT22;23161;51.250;5.554;2024-01-07T14:52:22;0.30;99.90
37274;DHT22;23161;51.250;5.554;2024-01-07T14:54:48;0.30;99.90
37274;DHT22;23161;51.250;5.554;2024-01-07T14:57:14;0.30;99.90
37274;DHT22;23161;51.250;5.554;2024-01-07T14:59:40;0.30;99.90
37274;DHT22;23161;51.250;5.554;2024-01-07T15:02:05;0.30;99.90
37274;DHT22;23161;51.250;5.554;2024-01-07T15:04:31;0.70;99.90
37274;DHT22;23161;51.250;5.554;2024-01-07T15:06:57;0.30;99.90
37274;DHT22;23161;51.250;5.554;2024-01-07T15:09:24;0.30;99.90
37274;DHT22;23161;51.250;5.554;2024-01-07T15:11:50;0.30;99.90
37274;DHT22;23161;51.250;5.554;2024-01-07T15:14:16;0.90;99.90
37274;DHT22;23161;51.250;5.554;2024-01-07T15:16:42;0.20;99.90
37274;DHT22;23161;51.250;5.554;2024-01-07T15:19:08;0.20;99.90
37274;DHT22;23161;51.250;5.554;2024-01-07T15:21:34;0.30;99.90
37274;DHT22;23161;51.250;5.554;2024-01-07T15:24:00;0.20;99.90
37274;DHT22;23161;51.250;5.554;2024-01-07T15:26:26;0.20;99.90
37274;DHT22;23161;51.250;5.554;2024-01-07T15:28:51;0.20;99.90
37274;DHT22;23161;51.250;5.554;2024-01-07T15:31:17;0.20;99.90
37274;DHT22;23161;51.250;5.554;2024-01-07T15:33:43;0.20;99.90
37274;DHT22;23161;51.250;5.554;2024-01-07T15:38:35;0.10;99.90
37274;DHT22;23161;51.250;5.554;2024-01-07T15:41:01;0.10;99.90
37274;DHT22;23161;51.250;5.554;2024-01-07T15:43:28;0.30;99.90
37274;DHT22;23161;51.250;5.554;2024-01-07T15:45:54;0.10;99.90
37274;DHT22;23161;51.250;5.554;2024-01-07T15:48:20;0.00;99.90
37274;DHT22;23161;51.250;5.554;2024-01-07T15:50:45;1.10;99.90
37274;DHT22;23161;51.250;5.554;2024-01-07T15:53:11;0.00;99.90
37274;DHT22;23161;51.250;5.554;2024-01-07T15:55:37;0.10;99.90